sensor_id;sensor_type;location;lat;lon;timestamp;P1;durP1;ratioP1;P2;durP2;ratioP2
23474;SDS011;11910;52.086;21.066;2022-11-30T00:01:11;35.25;;;20.40;;
23474;SDS011;11910;52.086;21.066;2022-11-30T00:03:41;26.27;;;16.92;;
23474;SDS011;11910;52.086;21.066;2022-11-30T00:06:08;29.70;;;20.95;;
23474;SDS011;11910;52.086;21.066;2022-11-30T00:08:36;29.40;;;20.48;;
23474;SDS011;11910;52.086;21.066;2022-11-30T00:11:13;30.00;;;20.02;;
23474;SDS011;11910;52.086;21.066;2022-11-30T00:13:42;27.67;;;19.00;;
23474;SDS011;11910;52.086;21.066;2022-11-30T00:16:08;27.48;;;19.40;;
23474;SDS011;11910;52.086;21.066;2022-11-30T00:18:34;28.05;;;19.05;;
23474;SDS011;11910;52.086;21.066;2022-11-30T00:21:01;29.08;;;19.58;;
23474;SDS011;11910;52.086;21.066;2022-11-30T00:23:31;28.27;;;19.63;;
23474;SDS011;11910;52.086;21.066;2022-11-30T00:26:01;26.48;;;18.63;;
23474;SDS011;11910;52.086;21.066;2022-11-30T00:28:28;27.33;;;19.70;;
23474;SDS011;11910;52.086;21.066;2022-11-30T00:30:55;26.67;;;19.30;;
23474;SDS011;11910;52.086;21.066;2022-11-30T00:33:22;29.13;;;20.17;;
23474;SDS011;11910;52.086;21.066;2022-11-30T00:35:59;26.23;;;18.70;;
23474;SDS011;11910;52.086;21.066;2022-11-30T00:38:26;32.00;;;21.23;;
23474;SDS011;11910;52.086;21.066;2022-11-30T00:40:52;29.13;;;19.13;;
23474;SDS011;11910;52.086;21.066;2022-11-30T00:43:17;29.40;;;20.30;;
23474;SDS011;11910;52.086;21.066;2022-11-30T00:45:43;28.70;;;20.05;;
23474;SDS011;11910;52.086;21.066;2022-11-30T00:48:09;28.10;;;19.60;;
23474;SDS011;11910;52.086;21.066;2022-11-30T00:50:35;27.80;;;18.80;;
23474;SDS011;11910;52.086;21.066;2022-11-30T00:53:00;30.88;;;20.63;;
23474;SDS011;11910;52.086;21.066;2022-11-30T00:55:26;27.58;;;19.15;;
23474;SDS011;11910;52.086;21.066;2022-11-30T00:57:52;28.48;;;19.77;;
23474;SDS011;11910;52.086;21.066;2022-11-30T01:00:18;30.73;;;19.65;;
23474;SDS011;11910;52.086;21.066;2022-11-30T01:02:44;28.73;;;20.25;;
23474;SDS011;11910;52.086;21.066;2022-11-30T01:05:10;28.85;;;20.30;;
23474;SDS011;11910;52.086;21.066;2022-11-30T01:07:41;29.17;;;20.67;;
23474;SDS011;11910;52.086;21.066;2022-11-30T01:10:07;32.80;;;21.35;;
23474;SDS011;11910;52.086;21.066;2022-11-30T01:12:33;32.08;;;20.30;;
23474;SDS011;11910;52.086;21.066;2022-11-30T01:14:58;30.98;;;19.98;;
23474;SDS011;11910;52.086;21.066;2022-11-30T01:17:24;29.85;;;19.77;;
23474;SDS011;11910;52.086;21.066;2022-11-30T01:19:52;29.33;;;20.00;;
23474;SDS011;11910;52.086;21.066;2022-11-30T01:22:24;23.13;;;15.27;;
23474;SDS011;11910;52.086;21.066;2022-11-30T01:24:49;28.35;;;19.92;;
23474;SDS011;11910;52.086;21.066;2022-11-30T01:27:15;29.35;;;19.90;;
23474;SDS011;11910;52.086;21.066;2022-11-30T01:29:40;29.13;;;20.50;;
23474;SDS011;11910;52.086;21.066;2022-11-30T01:32:06;29.65;;;20.67;;
23474;SDS011;11910;52.086;21.066;2022-11-30T01:34:32;33.10;;;21.70;;
23474;SDS011;11910;52.086;21.066;2022-11-30T01:36:58;28.13;;;20.25;;
23474;SDS011;11910;52.086;21.066;2022-11-30T01:39:24;30.60;;;19.20;;
23474;SDS011;11910;52.086;21.066;2022-11-30T01:41:49;28.88;;;19.92;;
23474;SDS011;11910;52.086;21.066;2022-11-30T01:47:00;25.98;;;18.60;;
23474;SDS011;11910;52.086;21.066;2022-11-30T01:49:40;27.58;;;19.13;;
23474;SDS011;11910;52.086;21.066;2022-11-30T01:54:46;27.83;;;19.15;;
23474;SDS011;11910;52.086;21.066;2022-11-30T01:57:25;29.33;;;19.08;;
23474;SDS011;11910;52.086;21.066;2022-11-30T01:59:59;26.60;;;18.52;;
23474;SDS011;11910;52.086;21.066;2022-11-30T02:02:39;27.42;;;18.55;;
23474;SDS011;11910;52.086;21.066;2022-11-30T02:05:12;28.67;;;18.58;;
23474;SDS011;11910;52.086;21.066;2022-11-30T02:07:39;25.75;;;17.98;;
23474;SDS011;11910;52.086;21.066;2022-11-30T02:10:06;27.38;;;18.60;;
23474;SDS011;11910;52.086;21.066;2022-11-30T02:12:36;27.63;;;18.85;;
23474;SDS011;11910;52.086;21.066;2022-11-30T02:15:10;29.17;;;19.20;;
23474;SDS011;11910;52.086;21.066;2022-11-30T02:17:50;27.90;;;19.20;;
23474;SDS011;11910;52.086;21.066;2022-11-30T02:20:28;30.33;;;19.40;;
23474;SDS011;11910;52.086;21.066;2022-11-30T02:23:17;27.90;;;19.35;;
23474;SDS011;11910;52.086;21.066;2022-11-30T02:31:19;26.95;;;18.13;;
23474;SDS011;11910;52.086;21.066;2022-11-30T02:33:49;26.25;;;18.02;;
23474;SDS011;11910;52.086;21.066;2022-11-30T02:36:16;27.60;;;17.52;;
23474;SDS011;11910;52.086;21.066;2022-11-30T02:38:42;25.10;;;17.90;;
23474;SDS011;11910;52.086;21.066;2022-11-30T02:41:08;24.85;;;17.63;;
23474;SDS011;11910;52.086;21.066;2022-11-30T02:43:34;28.08;;;18.75;;
23474;SDS011;11910;52.086;21.066;2022-11-30T02:46:05;26.42;;;18.48;;
23474;SDS011;11910;52.086;21.066;2022-11-30T02:51:13;25.50;;;17.58;;
23474;SDS011;11910;52.086;21.066;2022-11-30T02:53:43;26.58;;;18.38;;
23474;SDS011;11910;52.086;21.066;2022-11-30T02:56:09;26.02;;;18.17;;
23474;SDS011;11910;52.086;21.066;2022-11-30T02:58:35;28.35;;;18.80;;
23474;SDS011;11910;52.086;21.066;2022-11-30T03:01:01;27.73;;;18.67;;
23474;SDS011;11910;52.086;21.066;2022-11-30T03:03:27;27.10;;;18.80;;
23474;SDS011;11910;52.086;21.066;2022-11-30T03:05:52;30.35;;;19.63;;
23474;SDS011;11910;52.086;21.066;2022-11-30T03:08:18;26.00;;;18.65;;
23474;SDS011;11910;52.086;21.066;2022-11-30T03:10:46;27.25;;;19.25;;
23474;SDS011;11910;52.086;21.066;2022-11-30T03:13:12;30.48;;;19.95;;
23474;SDS011;11910;52.086;21.066;2022-11-30T03:15:38;28.98;;;20.02;;
23474;SDS011;11910;52.086;21.066;2022-11-30T03:18:04;26.42;;;18.05;;
23474;SDS011;11910;52.086;21.066;2022-11-30T03:20:30;25.17;;;17.85;;
23474;SDS011;11910;52.086;21.066;2022-11-30T03:23:02;23.95;;;16.60;;
23474;SDS011;11910;52.086;21.066;2022-11-30T03:25:28;24.35;;;16.90;;
23474;SDS011;11910;52.086;21.066;2022-11-30T03:27:53;26.05;;;17.55;;
23474;SDS011;11910;52.086;21.066;2022-11-30T03:30:19;24.42;;;17.33;;
23474;SDS011;11910;52.086;21.066;2022-11-30T03:32:45;25.83;;;17.60;;
23474;SDS011;11910;52.086;21.066;2022-11-30T03:35:11;26.23;;;17.90;;
23474;SDS011;11910;52.086;21.066;2022-11-30T03:37:36;25.08;;;17.40;;
23474;SDS011;11910;52.086;21.066;2022-11-30T03:40:02;25.73;;;17.70;;
23474;SDS011;11910;52.086;21.066;2022-11-30T03:42:28;23.77;;;16.92;;
23474;SDS011;11910;52.086;21.066;2022-11-30T03:44:54;26.85;;;18.17;;
23474;SDS011;11910;52.086;21.066;2022-11-30T03:47:20;26.88;;;18.08;;
23474;SDS011;11910;52.086;21.066;2022-11-30T03:49:45;25.73;;;17.55;;
23474;SDS011;11910;52.086;21.066;2022-11-30T03:52:11;25.52;;;17.67;;
23474;SDS011;11910;52.086;21.066;2022-11-30T03:54:37;25.85;;;18.27;;
23474;SDS011;11910;52.086;21.066;2022-11-30T03:57:02;26.08;;;18.08;;
23474;SDS011;11910;52.086;21.066;2022-11-30T03:59:28;26.13;;;18.20;;
23474;SDS011;11910;52.086;21.066;2022-11-30T04:01:54;27.10;;;18.90;;
23474;SDS011;11910;52.086;21.066;2022-11-30T04:04:19;24.35;;;17.23;;
23474;SDS011;11910;52.086;21.066;2022-11-30T04:06:45;26.30;;;19.30;;
23474;SDS011;11910;52.086;21.066;2022-11-30T04:09:11;26.50;;;18.27;;
23474;SDS011;11910;52.086;21.066;2022-11-30T04:11:36;24.67;;;17.50;;
23474;SDS011;11910;52.086;21.066;2022-11-30T04:14:04;26.30;;;18.38;;
23474;SDS011;11910;52.086;21.066;2022-11-30T04:16:30;25.73;;;18.63;;
23474;SDS011;11910;52.086;21.066;2022-11-30T04:18:56;26.95;;;18.80;;
23474;SDS011;11910;52.086;21.066;2022-11-30T04:21:22;25.33;;;17.95;;
23474;SDS011;11910;52.086;21.066;2022-11-30T04:23:47;27.67;;;18.10;;
23474;SDS011;11910;52.086;21.066;2022-11-30T04:26:14;26.15;;;18.38;;
23474;SDS011;11910;52.086;21.066;2022-11-30T04:28:40;27.08;;;18.60;;
23474;SDS011;11910;52.086;21.066;2022-11-30T04:31:06;24.95;;;18.20;;
23474;SDS011;11910;52.086;21.066;2022-11-30T04:33:32;25.92;;;19.00;;
23474;SDS011;11910;52.086;21.066;2022-11-30T04:35:59;26.83;;;19.02;;
23474;SDS011;11910;52.086;21.066;2022-11-30T04:38:27;26.98;;;18.75;;
23474;SDS011;11910;52.086;21.066;2022-11-30T04:40:53;26.90;;;18.38;;
23474;SDS011;11910;52.086;21.066;2022-11-30T04:43:19;28.58;;;19.17;;
23474;SDS011;11910;52.086;21.066;2022-11-30T04:45:45;29.60;;;19.98;;
23474;SDS011;11910;52.086;21.066;2022-11-30T04:48:11;29.88;;;19.13;;
23474;SDS011;11910;52.086;21.066;2022-11-30T04:50:37;27.05;;;19.80;;
23474;SDS011;11910;52.086;21.066;2022-11-30T04:53:03;27.17;;;19.42;;
23474;SDS011;11910;52.086;21.066;2022-11-30T04:55:30;29.83;;;19.00;;
23474;SDS011;11910;52.086;21.066;2022-11-30T04:57:56;29.90;;;20.48;;
23474;SDS011;11910;52.086;21.066;2022-11-30T05:00:21;27.58;;;19.45;;
23474;SDS011;11910;52.086;21.066;2022-11-30T05:02:47;31.88;;;21.23;;
23474;SDS011;11910;52.086;21.066;2022-11-30T05:05:13;28.92;;;20.05;;
23474;SDS011;11910;52.086;21.066;2022-11-30T05:07:39;28.73;;;20.50;;
23474;SDS011;11910;52.086;21.066;2022-11-30T05:10:05;28.00;;;20.10;;
23474;SDS011;11910;52.086;21.066;2022-11-30T05:12:31;30.17;;;20.73;;
23474;SDS011;11910;52.086;21.066;2022-11-30T05:14:57;27.45;;;19.50;;
23474;SDS011;11910;52.086;21.066;2022-11-30T05:17:23;27.55;;;19.98;;
23474;SDS011;11910;52.086;21.066;2022-11-30T05:19:48;30.58;;;21.15;;
23474;SDS011;11910;52.086;21.066;2022-11-30T05:22:14;29.60;;;20.25;;
23474;SDS011;11910;52.086;21.066;2022-11-30T05:24:40;34.42;;;21.48;;
23474;SDS011;11910;52.086;21.066;2022-11-30T05:27:06;29.38;;;20.67;;
23474;SDS011;11910;52.086;21.066;2022-11-30T05:29:31;31.65;;;20.15;;
23474;SDS011;11910;52.086;21.066;2022-11-30T05:31:59;29.13;;;19.98;;
23474;SDS011;11910;52.086;21.066;2022-11-30T05:34:25;28.75;;;19.45;;
23474;SDS011;11910;52.086;21.066;2022-11-30T05:36:51;28.40;;;19.27;;
23474;SDS011;11910;52.086;21.066;2022-11-30T05:39:17;30.10;;;19.33;;
23474;SDS011;11910;52.086;21.066;2022-11-30T05:41:42;27.17;;;20.05;;
23474;SDS011;11910;52.086;21.066;2022-11-30T05:44:08;27.60;;;19.63;;
23474;SDS011;11910;52.086;21.066;2022-11-30T05:46:35;29.60;;;20.33;;
23474;SDS011;11910;52.086;21.066;2022-11-30T05:49:01;30.73;;;19.25;;
23474;SDS011;11910;52.086;21.066;2022-11-30T05:51:27;26.85;;;18.38;;
23474;SDS011;11910;52.086;21.066;2022-11-30T05:53:52;27.50;;;19.60;;
23474;SDS011;11910;52.086;21.066;2022-11-30T05:56:19;25.75;;;17.73;;
23474;SDS011;11910;52.086;21.066;2022-11-30T05:58:45;28.10;;;19.10;;
23474;SDS011;11910;52.086;21.066;2022-11-30T06:01:18;32.33;;;19.58;;
23474;SDS011;11910;52.086;21.066;2022-11-30T06:03:46;29.92;;;19.00;;
23474;SDS011;11910;52.086;21.066;2022-11-30T06:06:12;29.50;;;19.67;;
23474;SDS011;11910;52.086;21.066;2022-11-30T06:08:37;26.05;;;18.23;;
23474;SDS011;11910;52.086;21.066;2022-11-30T06:11:05;27.17;;;19.38;;
23474;SDS011;11910;52.086;21.066;2022-11-30T06:13:31;26.75;;;18.42;;
23474;SDS011;11910;52.086;21.066;2022-11-30T06:15:58;28.67;;;19.33;;
23474;SDS011;11910;52.086;21.066;2022-11-30T06:18:24;27.05;;;19.08;;
23474;SDS011;11910;52.086;21.066;2022-11-30T06:20:50;26.55;;;19.00;;
23474;SDS011;11910;52.086;21.066;2022-11-30T06:23:15;27.35;;;18.95;;
23474;SDS011;11910;52.086;21.066;2022-11-30T06:25:43;28.25;;;19.50;;
23474;SDS011;11910;52.086;21.066;2022-11-30T06:28:12;28.55;;;20.08;;
23474;SDS011;11910;52.086;21.066;2022-11-30T06:30:37;31.52;;;21.27;;
23474;SDS011;11910;52.086;21.066;2022-11-30T06:33:03;30.10;;;21.17;;
23474;SDS011;11910;52.086;21.066;2022-11-30T06:35:29;35.10;;;22.00;;
23474;SDS011;11910;52.086;21.066;2022-11-30T06:37:55;32.42;;;22.38;;
23474;SDS011;11910;52.086;21.066;2022-11-30T06:40:21;31.83;;;22.50;;
23474;SDS011;11910;52.086;21.066;2022-11-30T06:42:47;34.75;;;23.25;;
23474;SDS011;11910;52.086;21.066;2022-11-30T06:45:17;32.67;;;22.92;;
23474;SDS011;11910;52.086;21.066;2022-11-30T06:47:43;32.97;;;23.05;;
23474;SDS011;11910;52.086;21.066;2022-11-30T06:50:09;34.60;;;23.10;;
23474;SDS011;11910;52.086;21.066;2022-11-30T06:52:36;33.95;;;23.27;;
23474;SDS011;11910;52.086;21.066;2022-11-30T06:55:02;35.30;;;23.65;;
23474;SDS011;11910;52.086;21.066;2022-11-30T06:57:28;35.25;;;24.35;;
23474;SDS011;11910;52.086;21.066;2022-11-30T06:59:55;38.50;;;25.27;;
23474;SDS011;11910;52.086;21.066;2022-11-30T07:02:21;35.33;;;24.77;;
23474;SDS011;11910;52.086;21.066;2022-11-30T07:04:47;36.22;;;23.92;;
23474;SDS011;11910;52.086;21.066;2022-11-30T07:07:13;39.78;;;25.10;;
23474;SDS011;11910;52.086;21.066;2022-11-30T07:09:39;34.83;;;24.55;;
23474;SDS011;11910;52.086;21.066;2022-11-30T07:12:06;45.17;;;27.95;;
23474;SDS011;11910;52.086;21.066;2022-11-30T07:14:32;44.97;;;28.92;;
23474;SDS011;11910;52.086;21.066;2022-11-30T07:16:57;36.70;;;25.58;;
23474;SDS011;11910;52.086;21.066;2022-11-30T07:19:28;49.72;;;31.30;;
23474;SDS011;11910;52.086;21.066;2022-11-30T07:21:55;35.88;;;24.90;;
23474;SDS011;11910;52.086;21.066;2022-11-30T07:24:21;38.30;;;26.13;;
23474;SDS011;11910;52.086;21.066;2022-11-30T07:27:06;41.70;;;26.75;;
23474;SDS011;11910;52.086;21.066;2022-11-30T07:29:47;34.65;;;23.58;;
23474;SDS011;11910;52.086;21.066;2022-11-30T07:32:21;37.10;;;24.60;;
23474;SDS011;11910;52.086;21.066;2022-11-30T07:34:49;35.35;;;24.45;;
23474;SDS011;11910;52.086;21.066;2022-11-30T07:37:15;35.17;;;23.42;;
23474;SDS011;11910;52.086;21.066;2022-11-30T07:39:40;33.58;;;23.48;;
23474;SDS011;11910;52.086;21.066;2022-11-30T07:42:12;33.25;;;23.13;;
23474;SDS011;11910;52.086;21.066;2022-11-30T07:44:49;35.15;;;23.52;;
23474;SDS011;11910;52.086;21.066;2022-11-30T07:47:24;35.83;;;24.88;;
23474;SDS011;11910;52.086;21.066;2022-11-30T07:49:52;31.90;;;22.67;;
23474;SDS011;11910;52.086;21.066;2022-11-30T07:52:29;32.90;;;21.63;;
23474;SDS011;11910;52.086;21.066;2022-11-30T07:54:55;31.35;;;21.90;;
23474;SDS011;11910;52.086;21.066;2022-11-30T07:57:21;31.65;;;20.27;;
23474;SDS011;11910;52.086;21.066;2022-11-30T07:59:46;29.45;;;20.70;;
23474;SDS011;11910;52.086;21.066;2022-11-30T08:02:12;32.95;;;21.48;;
23474;SDS011;11910;52.086;21.066;2022-11-30T08:04:38;30.33;;;21.02;;
23474;SDS011;11910;52.086;21.066;2022-11-30T08:07:04;32.17;;;21.85;;
23474;SDS011;11910;52.086;21.066;2022-11-30T08:09:32;38.05;;;25.63;;
23474;SDS011;11910;52.086;21.066;2022-11-30T08:11:58;39.45;;;27.30;;
23474;SDS011;11910;52.086;21.066;2022-11-30T08:14:24;30.05;;;21.60;;
23474;SDS011;11910;52.086;21.066;2022-11-30T08:16:49;28.40;;;19.48;;
23474;SDS011;11910;52.086;21.066;2022-11-30T08:19:15;33.03;;;20.10;;
23474;SDS011;11910;52.086;21.066;2022-11-30T08:21:41;28.50;;;19.60;;
23474;SDS011;11910;52.086;21.066;2022-11-30T08:24:08;27.58;;;19.27;;
23474;SDS011;11910;52.086;21.066;2022-11-30T08:26:36;27.70;;;19.15;;
23474;SDS011;11910;52.086;21.066;2022-11-30T08:29:04;27.63;;;18.70;;
23474;SDS011;11910;52.086;21.066;2022-11-30T08:31:31;28.08;;;19.65;;
23474;SDS011;11910;52.086;21.066;2022-11-30T08:34:02;27.77;;;19.90;;
23474;SDS011;11910;52.086;21.066;2022-11-30T08:36:30;30.75;;;19.65;;
23474;SDS011;11910;52.086;21.066;2022-11-30T08:38:59;27.67;;;19.60;;
23474;SDS011;11910;52.086;21.066;2022-11-30T08:41:27;26.08;;;18.73;;
23474;SDS011;11910;52.086;21.066;2022-11-30T08:43:53;26.80;;;19.30;;
23474;SDS011;11910;52.086;21.066;2022-11-30T08:46:19;29.90;;;19.92;;
23474;SDS011;11910;52.086;21.066;2022-11-30T08:48:47;31.02;;;19.30;;
23474;SDS011;11910;52.086;21.066;2022-11-30T08:51:14;27.10;;;19.92;;
23474;SDS011;11910;52.086;21.066;2022-11-30T08:53:41;28.77;;;20.58;;
23474;SDS011;11910;52.086;21.066;2022-11-30T08:56:09;26.60;;;19.23;;
23474;SDS011;11910;52.086;21.066;2022-11-30T08:58:37;26.25;;;18.67;;
23474;SDS011;11910;52.086;21.066;2022-11-30T09:01:11;26.35;;;18.88;;
23474;SDS011;11910;52.086;21.066;2022-11-30T09:03:43;32.35;;;22.05;;
23474;SDS011;11910;52.086;21.066;2022-11-30T09:06:11;24.88;;;17.17;;
23474;SDS011;11910;52.086;21.066;2022-11-30T09:08:39;22.73;;;16.80;;
23474;SDS011;11910;52.086;21.066;2022-11-30T09:11:07;25.48;;;17.35;;
23474;SDS011;11910;52.086;21.066;2022-11-30T09:13:43;23.88;;;17.02;;
23474;SDS011;11910;52.086;21.066;2022-11-30T09:16:10;25.67;;;18.30;;
23474;SDS011;11910;52.086;21.066;2022-11-30T09:18:37;23.95;;;17.02;;
23474;SDS011;11910;52.086;21.066;2022-11-30T09:21:09;25.02;;;17.17;;
23474;SDS011;11910;52.086;21.066;2022-11-30T09:23:37;24.45;;;17.33;;
23474;SDS011;11910;52.086;21.066;2022-11-30T09:26:08;22.65;;;15.80;;
23474;SDS011;11910;52.086;21.066;2022-11-30T09:28:36;21.77;;;16.00;;
23474;SDS011;11910;52.086;21.066;2022-11-30T09:33:29;32.20;;;18.88;;
23474;SDS011;11910;52.086;21.066;2022-11-30T09:35:56;23.38;;;16.63;;
23474;SDS011;11910;52.086;21.066;2022-11-30T09:38:25;23.95;;;16.23;;
23474;SDS011;11910;52.086;21.066;2022-11-30T09:40:55;30.52;;;18.50;;
23474;SDS011;11910;52.086;21.066;2022-11-30T09:46:00;28.17;;;17.55;;
23474;SDS011;11910;52.086;21.066;2022-11-30T09:55:09;26.13;;;17.70;;
23474;SDS011;11910;52.086;21.066;2022-11-30T09:57:59;27.23;;;18.25;;
23474;SDS011;11910;52.086;21.066;2022-11-30T10:00:27;26.60;;;18.90;;
23474;SDS011;11910;52.086;21.066;2022-11-30T10:02:54;28.60;;;18.35;;
23474;SDS011;11910;52.086;21.066;2022-11-30T10:05:42;26.25;;;18.65;;
23474;SDS011;11910;52.086;21.066;2022-11-30T10:11:13;28.30;;;18.98;;
23474;SDS011;11910;52.086;21.066;2022-11-30T10:14:04;26.30;;;18.42;;
23474;SDS011;11910;52.086;21.066;2022-11-30T10:16:59;25.85;;;17.10;;
23474;SDS011;11910;52.086;21.066;2022-11-30T10:22:26;25.17;;;18.20;;
23474;SDS011;11910;52.086;21.066;2022-11-30T10:25:13;24.33;;;16.88;;
23474;SDS011;11910;52.086;21.066;2022-11-30T10:27:51;26.70;;;18.05;;
23474;SDS011;11910;52.086;21.066;2022-11-30T10:30:29;24.05;;;17.67;;
23474;SDS011;11910;52.086;21.066;2022-11-30T10:33:22;25.23;;;17.58;;
23474;SDS011;11910;52.086;21.066;2022-11-30T10:35:48;22.63;;;16.30;;
23474;SDS011;11910;52.086;21.066;2022-11-30T10:43:51;26.90;;;18.25;;
23474;SDS011;11910;52.086;21.066;2022-11-30T10:46:25;24.63;;;17.40;;
23474;SDS011;11910;52.086;21.066;2022-11-30T10:48:55;23.65;;;16.08;;
23474;SDS011;11910;52.086;21.066;2022-11-30T10:51:26;25.50;;;17.48;;
23474;SDS011;11910;52.086;21.066;2022-11-30T10:53:53;28.88;;;19.35;;
23474;SDS011;11910;52.086;21.066;2022-11-30T10:56:18;24.30;;;16.73;;
23474;SDS011;11910;52.086;21.066;2022-11-30T10:58:52;25.02;;;17.30;;
23474;SDS011;11910;52.086;21.066;2022-11-30T11:01:31;26.83;;;17.75;;
23474;SDS011;11910;52.086;21.066;2022-11-30T11:11:54;23.55;;;16.85;;
23474;SDS011;11910;52.086;21.066;2022-11-30T11:14:28;25.02;;;17.38;;
23474;SDS011;11910;52.086;21.066;2022-11-30T11:19:58;24.05;;;16.52;;
23474;SDS011;11910;52.086;21.066;2022-11-30T11:22:28;23.33;;;16.50;;
23474;SDS011;11910;52.086;21.066;2022-11-30T11:25:18;25.63;;;17.02;;
23474;SDS011;11910;52.086;21.066;2022-11-30T11:27:51;24.55;;;16.77;;
23474;SDS011;11910;52.086;21.066;2022-11-30T11:32:56;27.50;;;18.42;;
23474;SDS011;11910;52.086;21.066;2022-11-30T11:35:31;27.27;;;17.58;;
23474;SDS011;11910;52.086;21.066;2022-11-30T11:41:09;24.90;;;16.98;;
23474;SDS011;11910;52.086;21.066;2022-11-30T11:46:26;25.98;;;17.30;;
23474;SDS011;11910;52.086;21.066;2022-11-30T11:51:32;24.08;;;16.58;;
23474;SDS011;11910;52.086;21.066;2022-11-30T11:54:01;24.75;;;17.05;;
23474;SDS011;11910;52.086;21.066;2022-11-30T11:56:41;25.67;;;17.55;;
23474;SDS011;11910;52.086;21.066;2022-11-30T12:04:51;27.33;;;18.15;;
23474;SDS011;11910;52.086;21.066;2022-11-30T12:10:26;25.95;;;16.77;;
23474;SDS011;11910;52.086;21.066;2022-11-30T12:12:57;24.42;;;17.02;;
23474;SDS011;11910;52.086;21.066;2022-11-30T12:15:37;23.63;;;16.25;;
23474;SDS011;11910;52.086;21.066;2022-11-30T12:18:29;25.63;;;17.33;;
23474;SDS011;11910;52.086;21.066;2022-11-30T12:21:15;28.20;;;19.08;;
23474;SDS011;11910;52.086;21.066;2022-11-30T12:24:14;28.13;;;18.17;;
23474;SDS011;11910;52.086;21.066;2022-11-30T12:35:22;29.17;;;19.65;;
23474;SDS011;11910;52.086;21.066;2022-11-30T12:41:30;26.13;;;16.92;;
23474;SDS011;11910;52.086;21.066;2022-11-30T12:44:26;29.48;;;19.60;;
23474;SDS011;11910;52.086;21.066;2022-11-30T12:54:50;28.83;;;19.45;;
23474;SDS011;11910;52.086;21.066;2022-11-30T12:57:37;26.00;;;18.30;;
23474;SDS011;11910;52.086;21.066;2022-11-30T13:00:14;23.63;;;16.05;;
23474;SDS011;11910;52.086;21.066;2022-11-30T13:05:43;26.80;;;17.95;;
23474;SDS011;11910;52.086;21.066;2022-11-30T13:14:35;30.98;;;17.83;;
23474;SDS011;11910;52.086;21.066;2022-11-30T13:17:03;26.55;;;17.80;;
23474;SDS011;11910;52.086;21.066;2022-11-30T13:22:45;26.30;;;18.02;;
23474;SDS011;11910;52.086;21.066;2022-11-30T13:25:35;28.30;;;18.90;;
23474;SDS011;11910;52.086;21.066;2022-11-30T13:28:36;32.53;;;20.13;;
23474;SDS011;11910;52.086;21.066;2022-11-30T13:36:38;27.15;;;18.77;;
23474;SDS011;11910;52.086;21.066;2022-11-30T13:41:42;27.88;;;18.52;;
23474;SDS011;11910;52.086;21.066;2022-11-30T13:47:45;28.05;;;18.10;;
23474;SDS011;11910;52.086;21.066;2022-11-30T13:53:05;27.75;;;18.23;;
23474;SDS011;11910;52.086;21.066;2022-11-30T13:55:50;26.05;;;17.35;;
23474;SDS011;11910;52.086;21.066;2022-11-30T13:58:23;24.67;;;16.98;;
23474;SDS011;11910;52.086;21.066;2022-11-30T14:01:00;25.05;;;17.83;;
23474;SDS011;11910;52.086;21.066;2022-11-30T14:04:13;27.50;;;18.48;;
23474;SDS011;11910;52.086;21.066;2022-11-30T14:07:02;27.08;;;18.48;;
23474;SDS011;11910;52.086;21.066;2022-11-30T14:09:59;25.88;;;18.40;;
23474;SDS011;11910;52.086;21.066;2022-11-30T14:14:55;27.95;;;19.25;;
23474;SDS011;11910;52.086;21.066;2022-11-30T14:20:46;30.40;;;21.05;;
23474;SDS011;11910;52.086;21.066;2022-11-30T14:36:15;28.33;;;19.40;;
23474;SDS011;11910;52.086;21.066;2022-11-30T14:39:20;27.27;;;18.92;;
23474;SDS011;11910;52.086;21.066;2022-11-30T15:01:43;28.73;;;19.48;;
23474;SDS011;11910;52.086;21.066;2022-11-30T15:57:06;26.88;;;18.48;;
23474;SDS011;11910;52.086;21.066;2022-11-30T15:59:34;28.25;;;19.27;;
23474;SDS011;11910;52.086;21.066;2022-11-30T16:02:00;26.50;;;18.33;;
23474;SDS011;11910;52.086;21.066;2022-11-30T16:07:30;28.10;;;19.50;;
23474;SDS011;11910;52.086;21.066;2022-11-30T16:10:16;29.08;;;18.63;;
23474;SDS011;11910;52.086;21.066;2022-11-30T16:12:50;27.70;;;17.75;;
23474;SDS011;11910;52.086;21.066;2022-11-30T16:15:21;25.85;;;18.15;;
23474;SDS011;11910;52.086;21.066;2022-11-30T16:17:49;30.38;;;18.95;;
23474;SDS011;11910;52.086;21.066;2022-11-30T16:20:16;25.65;;;16.90;;
23474;SDS011;11910;52.086;21.066;2022-11-30T16:22:43;24.98;;;17.48;;
23474;SDS011;11910;52.086;21.066;2022-11-30T16:25:16;24.48;;;16.63;;
23474;SDS011;11910;52.086;21.066;2022-11-30T16:27:43;26.38;;;18.77;;
23474;SDS011;11910;52.086;21.066;2022-11-30T16:30:16;27.77;;;18.63;;
23474;SDS011;11910;52.086;21.066;2022-11-30T16:32:48;61.25;;;39.75;;
23474;SDS011;11910;52.086;21.066;2022-11-30T16:35:22;31.20;;;20.67;;
23474;SDS011;11910;52.086;21.066;2022-11-30T16:37:54;27.60;;;19.52;;
23474;SDS011;11910;52.086;21.066;2022-11-30T16:40:20;28.63;;;18.60;;
23474;SDS011;11910;52.086;21.066;2022-11-30T16:42:47;28.08;;;19.10;;
23474;SDS011;11910;52.086;21.066;2022-11-30T16:45:20;29.55;;;19.98;;
23474;SDS011;11910;52.086;21.066;2022-11-30T16:47:48;28.30;;;19.17;;
23474;SDS011;11910;52.086;21.066;2022-11-30T16:50:15;30.05;;;18.67;;
23474;SDS011;11910;52.086;21.066;2022-11-30T16:52:46;29.92;;;19.23;;
23474;SDS011;11910;52.086;21.066;2022-11-30T16:55:16;28.50;;;20.10;;
23474;SDS011;11910;52.086;21.066;2022-11-30T16:57:43;28.98;;;19.90;;
23474;SDS011;11910;52.086;21.066;2022-11-30T17:00:13;28.20;;;19.08;;
23474;SDS011;11910;52.086;21.066;2022-11-30T17:02:44;31.52;;;20.42;;
23474;SDS011;11910;52.086;21.066;2022-11-30T17:05:18;26.90;;;19.33;;
23474;SDS011;11910;52.086;21.066;2022-11-30T17:07:50;30.30;;;20.15;;
23474;SDS011;11910;52.086;21.066;2022-11-30T17:10:54;28.15;;;18.92;;
23474;SDS011;11910;52.086;21.066;2022-11-30T17:16:15;28.00;;;19.13;;
23474;SDS011;11910;52.086;21.066;2022-11-30T17:18:41;30.00;;;20.70;;
23474;SDS011;11910;52.086;21.066;2022-11-30T17:21:15;27.60;;;19.23;;
23474;SDS011;11910;52.086;21.066;2022-11-30T17:23:43;29.95;;;20.80;;
23474;SDS011;11910;52.086;21.066;2022-11-30T17:26:16;31.38;;;20.48;;
23474;SDS011;11910;52.086;21.066;2022-11-30T17:28:42;28.65;;;20.23;;
23474;SDS011;11910;52.086;21.066;2022-11-30T17:31:11;32.00;;;20.63;;
23474;SDS011;11910;52.086;21.066;2022-11-30T17:36:06;26.35;;;18.75;;
23474;SDS011;11910;52.086;21.066;2022-11-30T17:38:34;26.90;;;18.08;;
23474;SDS011;11910;52.086;21.066;2022-11-30T17:41:04;26.90;;;17.92;;
23474;SDS011;11910;52.086;21.066;2022-11-30T17:43:34;25.55;;;17.90;;
23474;SDS011;11910;52.086;21.066;2022-11-30T17:46:17;26.85;;;18.27;;
23474;SDS011;11910;52.086;21.066;2022-11-30T17:48:44;28.20;;;19.65;;
23474;SDS011;11910;52.086;21.066;2022-11-30T17:51:13;26.58;;;18.42;;
23474;SDS011;11910;52.086;21.066;2022-11-30T17:53:40;25.05;;;16.70;;
23474;SDS011;11910;52.086;21.066;2022-11-30T17:58:37;24.15;;;17.20;;
23474;SDS011;11910;52.086;21.066;2022-11-30T18:01:04;24.00;;;16.98;;